Time;durP1;ratioP1;P1;durP2;ratioP2;P2;SDS_P1;SDS_P2;PMS_P1;PMS_P2;Temp;Humidity;BMP_temperature;BMP_pressure;BME280_temperature;BME280_humidity;BME280_pressure;Samples;Min_cycle;Max_cycle;Signal;HPM_P1;HPM_P2
2021/12/22 00:00:39;;;;;;;6.62;5.05;;;;;;;;;;143735;571;46020;-60
2021/12/22 00:03:08;;;;;;;6.32;4.70;;;;;;;;;;143730;640;47023;-61
2021/12/22 00:05:43;;;;;;;8.75;5.65;;;;;;;;;;143733;709;46012;-60
2021/12/22 00:08:13;;;;;;;11.20;5.93;;;;;;;;;;143734;673;45021;-60
2021/12/22 00:10:45;;;;;;;9.40;5.50;;;;;;;;;;143734;574;46010;-60
2021/12/22 00:13:12;;;;;;;9.07;6.20;;;;;;;;;;143730;585;47020;-60
2021/12/22 00:15:42;;;;;;;10.88;6.70;;;;;;;;;;143733;583;46013;-61
2021/12/22 00:18:09;;;;;;;9.15;6.47;;;;;;;;;;143735;600;45021;-60
2021/12/22 00:20:36;;;;;;;14.35;6.82;;;;;;;;;;143732;718;46010;-60
2021/12/22 00:23:03;;;;;;;8.95;6.00;;;;;;;;;;143731;604;47022;-61
2021/12/22 00:25:30;;;;;;;8.73;5.93;;;;;;;;;;143734;590;46012;-60
2021/12/22 00:27:58;;;;;;;11.05;6.47;;;;;;;;;;143731;569;47012;-60
2021/12/22 00:30:26;;;;;;;9.48;6.03;;;;;;;;;;143732;602;46020;-60
2021/12/22 00:32:55;;;;;;;14.35;7.55;;;;;;;;;;143733;644;47020;-60
2021/12/22 00:35:29;;;;;;;8.35;5.97;;;;;;;;;;143733;571;46012;-60
2021/12/22 00:37:56;;;;;;;8.00;5.87;;;;;;;;;;143733;585;45021;-60
2021/12/22 00:40:23;;;;;;;8.38;5.90;;;;;;;;;;143735;590;46010;-60
2021/12/22 00:42:50;;;;;;;9.70;6.07;;;;;;;;;;143733;668;47020;-60
2021/12/22 00:45:18;;;;;;;11.60;6.80;;;;;;;;;;143734;582;46013;-60
2021/12/22 00:47:45;;;;;;;9.60;7.20;;;;;;;;;;143733;571;45021;-60
2021/12/22 00:50:12;;;;;;;11.27;6.18;;;;;;;;;;143735;608;46010;-60
2021/12/22 00:52:39;;;;;;;10.20;6.03;;;;;;;;;;143730;598;47021;-60
2021/12/22 00:55:07;;;;;;;10.52;5.85;;;;;;;;;;143736;621;46032;-60
2021/12/22 00:57:35;;;;;;;12.75;7.18;;;;;;;;;;143733;620;45022;-60
2021/12/22 01:00:02;;;;;;;11.12;7.35;;;;;;;;;;143737;570;46012;-60
2021/12/22 01:02:29;;;;;;;10.75;5.72;;;;;;;;;;143732;621;47021;-60
2021/12/22 01:04:56;;;;;;;10.00;6.32;;;;;;;;;;143735;590;46012;-60
2021/12/22 01:07:24;;;;;;;9.15;6.22;;;;;;;;;;143735;575;45020;-60
2021/12/22 01:09:51;;;;;;;10.98;6.95;;;;;;;;;;143735;581;46010;-60
2021/12/22 01:12:18;;;;;;;14.55;6.25;;;;;;;;;;143733;594;47020;-60
2021/12/22 01:14:48;;;;;;;8.77;5.95;;;;;;;;;;143735;584;46012;-60
2021/12/22 01:17:16;;;;;;;12.48;6.75;;;;;;;;;;143734;594;45021;-60
2021/12/22 01:19:52;;;;;;;10.95;6.12;;;;;;;;;;143736;579;46020;-60
2021/12/22 01:22:27;;;;;;;9.80;5.95;;;;;;;;;;143732;610;47021;-60
2021/12/22 01:25:01;;;;;;;8.82;6.18;;;;;;;;;;143734;580;46012;-60
2021/12/22 01:27:34;;;;;;;12.63;6.20;;;;;;;;;;143736;569;45020;-60
2021/12/22 01:30:04;;;;;;;8.43;6.37;;;;;;;;;;143736;566;46020;-60
2021/12/22 01:32:31;;;;;;;9.27;6.00;;;;;;;;;;143735;576;47020;-60
2021/12/22 01:34:58;;;;;;;9.18;5.97;;;;;;;;;;143732;585;46020;-60
2021/12/22 01:37:25;;;;;;;10.35;6.80;;;;;;;;;;143735;584;45021;-60
2021/12/22 01:39:52;;;;;;;12.48;6.70;;;;;;;;;;143734;591;46010;-60
2021/12/22 01:42:19;;;;;;;8.23;6.35;;;;;;;;;;143732;601;47020;-60
2021/12/22 01:50:50;;;;;;;10.73;6.72;;;;;;;;;;143736;583;46010;-60
2021/12/22 01:53:45;;;;;;;10.93;8.18;;;;;;;;;;143729;589;47021;-60
2021/12/22 01:56:28;;;;;;;12.03;7.70;;;;;;;;;;143728;579;46020;-60
2021/12/22 01:59:00;;;;;;;10.60;7.57;;;;;;;;;;143733;573;45020;-59
2021/12/22 02:01:29;;;;;;;10.27;7.85;;;;;;;;;;143733;582;46010;-60
2021/12/22 02:03:56;;;;;;;16.87;8.50;;;;;;;;;;143731;631;47022;-60
2021/12/22 02:06:24;;;;;;;21.10;9.80;;;;;;;;;;143731;646;46013;-59
2021/12/22 02:08:53;;;;;;;16.00;9.05;;;;;;;;;;143731;576;46021;-59
2021/12/22 02:11:23;;;;;;;15.63;10.18;;;;;;;;;;143734;564;46020;-60
2021/12/22 02:14:00;;;;;;;14.68;8.82;;;;;;;;;;143728;574;47022;-60
2021/12/22 02:16:31;;;;;;;14.45;8.93;;;;;;;;;;143731;583;46013;-59
2021/12/22 02:19:01;;;;;;;18.58;9.18;;;;;;;;;;143731;670;45020;-60
2021/12/22 02:21:32;;;;;;;12.82;9.05;;;;;;;;;;143733;588;46020;-60
2021/12/22 02:24:00;;;;;;;13.50;7.35;;;;;;;;;;143732;706;47020;-59
2021/12/22 02:26:37;;;;;;;14.35;8.98;;;;;;;;;;143731;664;46012;-59
2021/12/22 02:29:07;;;;;;;12.30;8.73;;;;;;;;;;143726;582;47012;-60
2021/12/22 02:31:41;;;;;;;16.30;10.30;;;;;;;;;;143735;597;46014;-60
2021/12/22 02:34:15;;;;;;;15.73;10.30;;;;;;;;;;143730;590;47022;-59
2021/12/22 02:36:43;;;;;;;16.58;10.70;;;;;;;;;;143731;589;46013;-59
2021/12/22 02:39:10;;;;;;;14.70;11.45;;;;;;;;;;143733;564;45021;-60
2021/12/22 02:41:38;;;;;;;15.43;9.95;;;;;;;;;;143731;644;46020;-60
2021/12/22 02:44:10;;;;;;;15.90;10.27;;;;;;;;;;143732;574;47021;-60
2021/12/22 02:46:39;;;;;;;17.10;11.00;;;;;;;;;;143728;565;46013;-59
2021/12/22 02:49:09;;;;;;;12.13;9.55;;;;;;;;;;143729;570;46020;-59
2021/12/22 02:51:40;;;;;;;13.40;8.98;;;;;;;;;;143732;590;46010;-59
2021/12/22 02:54:15;;;;;;;16.27;10.57;;;;;;;;;;143729;636;47021;-60
2021/12/22 03:02:29;;;;;;;17.48;11.15;;;;;;;;;;143737;569;46012;-59
2021/12/22 03:04:58;;;;;;;16.60;10.45;;;;;;;;;;143729;666;47020;-60
2021/12/22 03:07:30;;;;;;;17.60;10.65;;;;;;;;;;143730;564;46013;-59
2021/12/22 03:10:05;;;;;;;17.15;11.00;;;;;;;;;;143730;607;45021;-60
2021/12/22 03:12:34;;;;;;;;;;;;;;;;;;143738;978;46010;-59
2021/12/22 03:15:06;;;;;;;20.27;12.48;;;;;;;;;;143732;571;47021;-60
2021/12/22 03:17:33;;;;;;;21.42;13.02;;;;;;;;;;143732;593;46012;-59
2021/12/22 03:20:01;;;;;;;17.98;12.13;;;;;;;;;;143732;571;45020;-60
2021/12/22 03:22:28;;;;;;;23.95;13.10;;;;;;;;;;143733;591;46013;-60
2021/12/22 03:25:01;;;;;;;20.30;12.20;;;;;;;;;;143731;602;47020;-60
2021/12/22 03:27:28;;;;;;;19.98;13.10;;;;;;;;;;143731;699;46012;-59
2021/12/22 03:29:55;;;;;;;18.10;12.68;;;;;;;;;;143732;594;45021;-59
2021/12/22 03:32:22;;;;;;;25.05;14.50;;;;;;;;;;143732;587;46012;-59
2021/12/22 03:34:49;;;;;;;17.40;11.65;;;;;;;;;;143727;608;47020;-60
2021/12/22 03:37:16;;;;;;;15.70;11.90;;;;;;;;;;143732;628;46013;-59
2021/12/22 03:39:43;;;;;;;15.45;11.02;;;;;;;;;;143731;771;45020;-59
2021/12/22 03:42:11;;;;;;;14.75;11.00;;;;;;;;;;143733;565;46012;-60
2021/12/22 03:44:38;;;;;;;17.33;12.48;;;;;;;;;;143730;578;47022;-59
2021/12/22 03:47:06;;;;;;;15.93;11.85;;;;;;;;;;143732;586;46012;-59
2021/12/22 03:49:36;;;;;;;17.58;12.65;;;;;;;;;;143731;585;45020;-59
2021/12/22 03:52:05;;;;;;;18.67;12.60;;;;;;;;;;143734;598;46012;-60
2021/12/22 03:54:32;;;;;;;15.40;11.57;;;;;;;;;;143729;565;47020;-60
2021/12/22 03:57:02;;;;;;;19.33;12.27;;;;;;;;;;143729;601;46012;-59
2021/12/22 03:59:29;;;;;;;20.08;13.38;;;;;;;;;;143733;590;45021;-59
2021/12/22 04:01:56;;;;;;;19.02;11.88;;;;;;;;;;143734;583;46012;-59
2021/12/22 04:04:23;;;;;;;18.90;12.85;;;;;;;;;;143731;587;47020;-60
2021/12/22 04:06:51;;;;;;;18.62;13.18;;;;;;;;;;143730;610;47013;-59
2021/12/22 04:09:26;;;;;;;16.98;12.00;;;;;;;;;;143730;591;45020;-60
2021/12/22 04:11:53;;;;;;;19.73;12.82;;;;;;;;;;143734;644;46012;-59
2021/12/22 04:14:20;;;;;;;15.98;12.27;;;;;;;;;;143729;566;47021;-60
2021/12/22 04:16:47;;;;;;;16.77;12.13;;;;;;;;;;143729;569;47012;-60
2021/12/22 04:19:14;;;;;;;20.62;12.80;;;;;;;;;;143726;609;47012;-59
2021/12/22 04:21:41;;;;;;;17.67;12.95;;;;;;;;;;143734;655;46020;-59
2021/12/22 04:24:08;;;;;;;18.70;12.70;;;;;;;;;;143728;613;47050;-59
2021/12/22 04:26:35;;;;;;;17.90;12.65;;;;;;;;;;143732;577;46919;-60
2021/12/22 04:29:02;;;;;;;20.50;14.95;;;;;;;;;;143731;597;45021;-59
2021/12/22 04:31:29;;;;;;;21.08;14.85;;;;;;;;;;143733;564;46012;-60
2021/12/22 04:34:01;;;;;;;18.65;12.50;;;;;;;;;;143728;580;47020;-59
2021/12/22 04:36:28;;;;;;;20.90;14.68;;;;;;;;;;143732;586;46012;-59
2021/12/22 04:38:57;;;;;;;23.40;14.63;;;;;;;;;;143732;564;45021;-60
2021/12/22 04:41:24;;;;;;;18.95;11.93;;;;;;;;;;143732;583;46012;-59
2021/12/22 04:43:53;;;;;;;17.62;12.02;;;;;;;;;;143731;582;47020;-59
2021/12/22 04:46:21;;;;;;;23.15;14.30;;;;;;;;;;143731;695;46012;-59
2021/12/22 04:48:48;;;;;;;20.40;13.68;;;;;;;;;;143733;565;45020;-59
2021/12/22 04:51:27;;;;;;;19.02;13.73;;;;;;;;;;143734;565;46021;-59
2021/12/22 04:54:03;;;;;;;20.88;13.45;;;;;;;;;;143729;574;47020;-60
2021/12/22 04:56:31;;;;;;;19.75;12.75;;;;;;;;;;143730;585;46020;-59
2021/12/22 04:58:58;;;;;;;21.58;14.13;;;;;;;;;;143733;613;45024;-59
2021/12/22 05:01:25;;;;;;;21.90;14.30;;;;;;;;;;143734;698;46012;-59
2021/12/22 05:03:56;;;;;;;29.90;15.05;;;;;;;;;;143728;579;47020;-60
2021/12/22 05:06:23;;;;;;;20.33;14.45;;;;;;;;;;143732;595;46013;-59
2021/12/22 05:08:51;;;;;;;18.30;13.10;;;;;;;;;;143732;593;45020;-60
2021/12/22 05:11:19;;;;;;;19.67;14.35;;;;;;;;;;143734;629;46012;-60
2021/12/22 05:13:46;;;;;;;23.85;14.87;;;;;;;;;;143729;604;47022;-59
2021/12/22 05:16:19;;;;;;;20.48;15.02;;;;;;;;;;143731;583;46012;-60
2021/12/22 05:21:32;;;;;;;20.00;13.90;;;;;;;;;;143736;564;46033;-60
2021/12/22 05:24:02;;;;;;;20.50;13.27;;;;;;;;;;143728;599;47023;-59
2021/12/22 05:26:29;;;;;;;20.17;13.40;;;;;;;;;;143731;617;46012;-59
2021/12/22 05:28:56;;;;;;;21.87;14.63;;;;;;;;;;143731;581;45021;-59
2021/12/22 05:31:24;;;;;;;17.23;12.00;;;;;;;;;;143733;609;46012;-59
2021/12/22 05:33:51;;;;;;;20.08;14.95;;;;;;;;;;143730;646;47020;-60
2021/12/22 05:36:18;;;;;;;18.27;12.57;;;;;;;;;;143732;733;46012;-60
2021/12/22 05:38:45;;;;;;;20.25;13.77;;;;;;;;;;143732;566;45020;-59
2021/12/22 05:41:12;;;;;;;34.63;14.55;;;;;;;;;;143734;595;46012;-59
2021/12/22 05:43:39;;;;;;;19.50;14.40;;;;;;;;;;143731;588;47021;-59
2021/12/22 05:46:06;;;;;;;20.42;13.23;;;;;;;;;;143731;606;46024;-60
2021/12/22 05:48:33;;;;;;;25.67;13.10;;;;;;;;;;143733;577;45020;-59
2021/12/22 05:51:03;;;;;;;20.25;14.48;;;;;;;;;;143733;606;47021;-60
2021/12/22 05:53:31;;;;;;;17.55;13.27;;;;;;;;;;143729;598;47023;-59
2021/12/22 05:55:58;;;;;;;19.23;12.18;;;;;;;;;;143732;582;47012;-59
2021/12/22 05:58:26;;;;;;;19.10;12.93;;;;;;;;;;143730;576;45021;-60
2021/12/22 06:00:53;;;;;;;19.23;14.07;;;;;;;;;;143732;680;46020;-59
2021/12/22 06:03:20;;;;;;;19.23;12.37;;;;;;;;;;143732;593;47020;-59
2021/12/22 06:05:50;;;;;;;23.25;14.68;;;;;;;;;;143730;616;46013;-59
2021/12/22 06:08:17;;;;;;;22.75;13.52;;;;;;;;;;143731;581;45020;-59
2021/12/22 06:10:44;;;;;;;31.75;22.20;;;;;;;;;;143733;752;46012;-59
2021/12/22 06:13:11;;;;;;;38.13;26.80;;;;;;;;;;143728;586;47022;-60
2021/12/22 06:15:40;;;;;;;47.55;31.90;;;;;;;;;;143732;684;46012;-60
2021/12/22 06:18:07;;;;;;;27.08;18.55;;;;;;;;;;143730;623;47020;-59
2021/12/22 06:20:35;;;;;;;30.85;22.10;;;;;;;;;;143733;572;46013;-59
2021/12/22 06:23:02;;;;;;;33.88;18.42;;;;;;;;;;143730;590;47020;-59
2021/12/22 06:25:30;;;;;;;22.92;15.43;;;;;;;;;;143732;569;46020;-59
2021/12/22 06:27:57;;;;;;;28.95;18.85;;;;;;;;;;143733;596;45021;-59
2021/12/22 06:30:24;;;;;;;30.80;23.73;;;;;;;;;;143734;753;46020;-59
2021/12/22 06:32:52;;;;;;;34.20;26.33;;;;;;;;;;143727;601;47022;-59
2021/12/22 06:35:19;;;;;;;27.62;20.02;;;;;;;;;;143733;585;46012;-59
2021/12/22 06:37:46;;;;;;;24.63;20.08;;;;;;;;;;143732;583;45021;-59
2021/12/22 06:40:19;;;;;;;28.62;20.52;;;;;;;;;;143730;582;46020;-59
2021/12/22 06:42:46;;;;;;;21.90;17.27;;;;;;;;;;143726;720;47021;-59
2021/12/22 06:45:14;;;;;;;52.58;34.75;;;;;;;;;;143726;616;46020;-59
2021/12/22 06:47:42;;;;;;;62.72;43.05;;;;;;;;;;143732;589;45032;-59
2021/12/22 06:50:10;;;;;;;65.07;40.00;;;;;;;;;;143730;640;46013;-59
2021/12/22 06:52:40;;;;;;;66.40;39.95;;;;;;;;;;143728;594;47020;-59
2021/12/22 06:55:07;;;;;;;46.30;31.33;;;;;;;;;;143732;706;46012;-60
2021/12/22 06:57:35;;;;;;;41.35;27.42;;;;;;;;;;143731;657;45021;-60
2021/12/22 07:00:07;;;;;;;48.22;29.27;;;;;;;;;;143733;588;46020;-60
2021/12/22 07:02:37;;;;;;;41.85;29.23;;;;;;;;;;143726;586;47020;-61
2021/12/22 07:05:06;;;;;;;39.72;27.35;;;;;;;;;;143731;635;46023;-61
2021/12/22 07:07:33;;;;;;;29.12;20.33;;;;;;;;;;143729;579;46020;-61
2021/12/22 07:10:00;;;;;;;41.60;30.30;;;;;;;;;;143733;623;46012;-61
2021/12/22 07:12:27;;;;;;;45.20;26.90;;;;;;;;;;143728;575;47021;-61
2021/12/22 07:14:54;;;;;;;32.13;25.45;;;;;;;;;;143728;565;47012;-62
2021/12/22 07:17:21;;;;;;;35.60;24.48;;;;;;;;;;143731;620;46014;-62
2021/12/22 07:19:50;;;;;;;35.30;22.50;;;;;;;;;;143732;587;46013;-61
2021/12/22 07:22:17;;;;;;;36.08;25.67;;;;;;;;;;143729;567;47020;-62
2021/12/22 07:24:44;;;;;;;28.55;23.42;;;;;;;;;;143730;577;47012;-61
2021/12/22 07:27:11;;;;;;;28.05;20.83;;;;;;;;;;143732;589;45021;-61
2021/12/22 07:29:38;;;;;;;28.52;19.52;;;;;;;;;;143733;737;46012;-61
2021/12/22 07:32:09;;;;;;;26.45;14.93;;;;;;;;;;143724;570;47020;-62
2021/12/22 07:34:56;;;;;;;24.35;16.77;;;;;;;;;;143732;574;46012;-62
2021/12/22 07:37:57;;;;;;;22.83;15.15;;;;;;;;;;143732;564;46018;-62
2021/12/22 07:40:24;;;;;;;23.40;16.70;;;;;;;;;;143731;699;46012;-62
2021/12/22 07:42:51;;;;;;;21.98;15.73;;;;;;;;;;143730;676;47022;-62
2021/12/22 07:45:21;;;;;;;23.20;15.13;;;;;;;;;;143726;656;47012;-62
2021/12/22 07:47:51;;;;;;;25.50;16.48;;;;;;;;;;143732;612;45020;-62
2021/12/22 07:50:18;;;;;;;49.20;29.90;;;;;;;;;;143733;577;46012;-62
2021/12/22 07:52:45;;;;;;;57.08;36.17;;;;;;;;;;143729;567;47020;-62
2021/12/22 07:55:12;;;;;;;54.05;30.80;;;;;;;;;;143732;582;46012;-62
2021/12/22 07:57:39;;;;;;;48.22;27.87;;;;;;;;;;143727;573;46015;-62
2021/12/22 08:00:07;;;;;;;38.42;23.58;;;;;;;;;;143734;616;46012;-62
2021/12/22 08:02:36;;;;;;;36.55;23.58;;;;;;;;;;143729;598;47022;-62
2021/12/22 08:05:04;;;;;;;24.20;16.92;;;;;;;;;;143732;564;46043;-61
2021/12/22 08:07:31;;;;;;;31.10;19.12;;;;;;;;;;143729;594;45018;-62
2021/12/22 08:09:58;;;;;;;24.77;15.88;;;;;;;;;;143731;632;46012;-62
2021/12/22 08:12:25;;;;;;;23.33;14.95;;;;;;;;;;143726;577;47020;-62
2021/12/22 08:14:52;;;;;;;21.65;15.80;;;;;;;;;;143725;598;47012;-62
2021/12/22 08:17:20;;;;;;;26.77;18.08;;;;;;;;;;143730;596;45018;-62
2021/12/22 08:19:47;;;;;;;28.00;18.08;;;;;;;;;;143730;565;46022;-62
2021/12/22 08:22:14;;;;;;;19.60;12.90;;;;;;;;;;143726;594;47021;-62
2021/12/22 08:24:41;;;;;;;18.45;12.68;;;;;;;;;;143728;575;46012;-62
2021/12/22 08:27:08;;;;;;;15.60;12.45;;;;;;;;;;143730;567;45019;-61
2021/12/22 08:29:41;;;;;;;22.00;15.13;;;;;;;;;;143730;621;46012;-62
2021/12/22 08:32:08;;;;;;;19.85;12.70;;;;;;;;;;143726;628;47018;-62
2021/12/22 08:34:38;;;;;;;25.17;18.70;;;;;;;;;;143728;627;46012;-62
2021/12/22 08:39:50;;;;;;;20.17;14.43;;;;;;;;;;143731;577;45022;-62
2021/12/22 08:42:17;;;;;;;16.52;12.18;;;;;;;;;;143726;619;47019;-62
2021/12/22 08:44:44;;;;;;;31.10;18.10;;;;;;;;;;143727;595;46012;-62
2021/12/22 08:47:11;;;;;;;38.42;21.65;;;;;;;;;;143729;580;45018;-62
2021/12/22 08:49:39;;;;;;;33.25;21.37;;;;;;;;;;143731;656;46022;-62
2021/12/22 08:52:06;;;;;;;35.67;23.62;;;;;;;;;;143731;575;45021;-62
2021/12/22 08:54:34;;;;;;;33.70;21.77;;;;;;;;;;143727;575;46012;-62
2021/12/22 08:57:01;;;;;;;27.45;19.00;;;;;;;;;;143727;622;45914;-62
2021/12/22 08:59:28;;;;;;;32.75;19.73;;;;;;;;;;143730;687;46023;-62
2021/12/22 09:01:55;;;;;;;27.42;16.02;;;;;;;;;;143726;627;47020;-62
2021/12/22 09:04:22;;;;;;;41.67;23.00;;;;;;;;;;143726;578;47012;-62
2021/12/22 09:06:51;;;;;;;54.05;29.23;;;;;;;;;;143729;612;45018;-62
2021/12/22 09:09:20;;;;;;;40.40;24.92;;;;;;;;;;143731;608;46012;-62
2021/12/22 09:11:47;;;;;;;27.55;17.52;;;;;;;;;;143726;639;47020;-61
2021/12/22 09:14:16;;;;;;;32.40;19.73;;;;;;;;;;143728;574;46023;-61
2021/12/22 09:16:43;;;;;;;40.40;19.17;;;;;;;;;;143729;593;45913;-62
2021/12/22 09:19:10;;;;;;;28.55;14.55;;;;;;;;;;143731;624;47012;-62
2021/12/22 09:21:39;;;;;;;19.05;13.52;;;;;;;;;;143726;621;47018;-62
2021/12/22 09:24:06;;;;;;;22.25;11.93;;;;;;;;;;143728;627;46012;-62
2021/12/22 09:26:34;;;;;;;17.83;11.65;;;;;;;;;;143730;649;45019;-61
2021/12/22 09:29:01;;;;;;;16.35;10.73;;;;;;;;;;143731;663;46022;-61
2021/12/22 09:31:28;;;;;;;18.05;10.32;;;;;;;;;;143725;574;47018;-60
2021/12/22 09:33:55;;;;;;;15.10;9.55;;;;;;;;;;143726;629;46013;-60
2021/12/22 09:36:23;;;;;;;14.02;9.52;;;;;;;;;;143730;619;45019;-59
2021/12/22 09:38:51;;;;;;;18.80;9.30;;;;;;;;;;143731;624;46022;-60
2021/12/22 09:41:18;;;;;;;13.60;8.68;;;;;;;;;;143727;578;47021;-60
2021/12/22 09:43:45;;;;;;;21.62;9.15;;;;;;;;;;143726;569;47012;-60
2021/12/22 09:46:16;;;;;;;14.25;9.13;;;;;;;;;;143730;582;45018;-60
2021/12/22 09:48:52;;;;;;;12.05;8.73;;;;;;;;;;143732;622;46010;-61
2021/12/22 09:54:10;;;;;;;14.20;8.88;;;;;;;;;;143729;632;45920;-60
2021/12/22 09:56:40;;;;;;;14.27;8.70;;;;;;;;;;143731;607;45019;-59
2021/12/22 09:59:07;;;;;;;15.93;8.90;;;;;;;;;;143730;566;46023;-60
2021/12/22 10:01:34;;;;;;;17.12;10.32;;;;;;;;;;143729;569;47018;-60
2021/12/22 10:04:02;;;;;;;15.55;8.45;;;;;;;;;;143729;625;46013;-60
2021/12/22 10:06:29;;;;;;;16.67;9.10;;;;;;;;;;143732;622;45018;-60
2021/12/22 10:09:03;;;;;;;14.05;8.00;;;;;;;;;;143731;573;46010;-59
2021/12/22 10:11:33;;;;;;;15.18;7.65;;;;;;;;;;143727;569;47019;-60
2021/12/22 10:14:00;;;;;;;17.00;8.30;;;;;;;;;;143728;607;46012;-60
2021/12/22 10:16:29;;;;;;;16.77;8.50;;;;;;;;;;143730;590;45021;-60
2021/12/22 10:19:10;;;;;;;14.27;7.12;;;;;;;;;;143732;579;46022;-60
2021/12/22 10:21:54;;;;;;;13.88;7.00;;;;;;;;;;143727;582;47020;-60
2021/12/22 10:24:37;;;;;;;12.00;7.53;;;;;;;;;;143729;585;46012;-60
2021/12/22 10:27:06;;;;;;;14.73;8.20;;;;;;;;;;143731;594;45019;-59
2021/12/22 10:29:34;;;;;;;16.40;8.30;;;;;;;;;;143732;582;46010;-61
2021/12/22 10:32:26;;;;;;;13.55;7.75;;;;;;;;;;143728;643;47018;-60
2021/12/22 10:35:01;;;;;;;16.00;7.60;;;;;;;;;;143727;564;46013;-61
2021/12/22 10:37:36;;;;;;;;;;;;;;;;;;143735;975;45018;-60
2021/12/22 10:40:28;;;;;;;12.48;7.72;;;;;;;;;;143742;688;46012;-60
2021/12/22 10:42:57;;;;;;;17.20;6.97;;;;;;;;;;143727;610;47018;-59
2021/12/22 10:45:27;;;;;;;14.65;7.18;;;;;;;;;;143727;608;46022;-60
2021/12/22 10:50:45;;;;;;;10.82;7.43;;;;;;;;;;143732;577;46023;-59
2021/12/22 10:53:15;;;;;;;12.55;7.85;;;;;;;;;;143727;614;47018;-59
2021/12/22 10:55:47;;;;;;;13.15;8.00;;;;;;;;;;143728;602;46013;-59
2021/12/22 10:58:20;;;;;;;21.58;7.62;;;;;;;;;;143730;602;45018;-60
2021/12/22 11:01:21;;;;;;;9.82;5.45;;;;;;;;;;143731;626;46012;-60
2021/12/22 11:04:02;;;;;;;11.12;5.87;;;;;;;;;;143728;639;47022;-60
2021/12/22 11:06:30;;;;;;;8.70;6.10;;;;;;;;;;143728;580;46012;-59
2021/12/22 11:09:13;;;;;;;10.93;6.70;;;;;;;;;;143729;579;46040;-60
2021/12/22 11:12:00;;;;;;;13.13;6.60;;;;;;;;;;143731;626;46012;-60
2021/12/22 11:14:29;;;;;;;12.85;6.93;;;;;;;;;;143728;564;47024;-59
2021/12/22 11:17:21;;;;;;;9.85;5.95;;;;;;;;;;143728;605;46012;-59
2021/12/22 11:20:04;;;;;;;12.50;6.43;;;;;;;;;;143731;629;45021;-59
2021/12/22 11:22:59;;;;;;;10.05;6.10;;;;;;;;;;143731;640;46020;-60
2021/12/22 11:25:28;;;;;;;14.57;6.20;;;;;;;;;;143728;583;47022;-61
2021/12/22 11:27:56;;;;;;;9.57;5.53;;;;;;;;;;143728;623;46033;-61
2021/12/22 11:30:26;;;;;;;14.52;6.72;;;;;;;;;;143731;596;45020;-60
2021/12/22 11:32:54;;;;;;;20.92;12.45;;;;;;;;;;143732;570;46012;-60
2021/12/22 11:35:21;;;;;;;11.00;7.47;;;;;;;;;;143729;569;47020;-60
2021/12/22 11:37:49;;;;;;;17.67;10.32;;;;;;;;;;143729;589;46012;-60
2021/12/22 11:40:18;;;;;;;11.27;6.72;;;;;;;;;;143731;626;45021;-60
2021/12/22 11:42:45;;;;;;;16.10;9.02;;;;;;;;;;143732;621;46021;-60
2021/12/22 11:45:18;;;;;;;23.05;10.05;;;;;;;;;;143728;573;47020;-62
2021/12/22 11:47:48;;;;;;;12.35;7.45;;;;;;;;;;143728;619;47012;-61
2021/12/22 11:50:21;;;;;;;20.23;8.60;;;;;;;;;;143730;579;45021;-62
2021/12/22 11:53:16;;;;;;;7.68;5.30;;;;;;;;;;143731;589;46012;-62
2021/12/22 11:55:47;;;;;;;;;;;;;;;;;;143732;981;47024;-61
2021/12/22 11:58:38;;;;;;;12.13;6.10;;;;;;;;;;143739;610;46012;-62
2021/12/22 12:01:11;;;;;;;8.73;5.40;;;;;;;;;;143731;603;45022;-62
2021/12/22 12:03:44;;;;;;;8.45;5.18;;;;;;;;;;143731;573;46010;-62
2021/12/22 12:06:18;;;;;;;9.50;5.32;;;;;;;;;;143727;581;47023;-61
2021/12/22 12:09:21;;;;;;;12.23;6.17;;;;;;;;;;143729;717;46012;-61
2021/12/22 12:11:52;;;;;;;10.07;5.53;;;;;;;;;;143730;594;45023;-60
2021/12/22 12:23:27;;;;;;;10.13;5.87;;;;;;;;;;143730;611;46020;-61
2021/12/22 12:25:55;;;;;;;9.15;5.60;;;;;;;;;;143731;586;46011;-61
2021/12/22 12:28:24;;;;;;;8.57;5.43;;;;;;;;;;143727;576;47023;-62
2021/12/22 12:30:56;;;;;;;9.73;5.90;;;;;;;;;;143729;655;46012;-63
2021/12/22 12:33:27;;;;;;;13.40;6.25;;;;;;;;;;143729;580;46020;-63
2021/12/22 12:36:30;;;;;;;8.52;5.30;;;;;;;;;;143732;566;46010;-63
2021/12/22 12:38:57;;;;;;;9.27;6.20;;;;;;;;;;143728;566;47024;-63
2021/12/22 12:41:28;;;;;;;7.45;5.68;;;;;;;;;;143727;636;47010;-63
2021/12/22 12:44:01;;;;;;;17.48;11.73;;;;;;;;;;143730;590;45020;-62
2021/12/22 12:46:43;;;;;;;50.85;32.17;;;;;;;;;;143732;594;46011;-62
2021/12/22 12:49:32;;;;;;;20.98;13.40;;;;;;;;;;143728;609;47020;-63
2021/12/22 12:51:59;;;;;;;20.10;11.95;;;;;;;;;;143726;564;47010;-62
2021/12/22 12:54:33;;;;;;;21.45;10.75;;;;;;;;;;143731;721;45021;-63
2021/12/22 12:57:22;;;;;;;14.48;9.18;;;;;;;;;;143731;599;46010;-62
2021/12/22 12:59:54;;;;;;;13.27;8.10;;;;;;;;;;143726;627;49020;-63
2021/12/22 13:02:29;;;;;;;14.93;9.20;;;;;;;;;;143728;566;46011;-62
2021/12/22 13:04:59;;;;;;;16.73;10.40;;;;;;;;;;143732;571;45020;-63
2021/12/22 13:07:26;;;;;;;13.60;7.90;;;;;;;;;;143731;667;46020;-63
2021/12/22 13:10:02;;;;;;;10.75;6.55;;;;;;;;;;143727;641;47021;-63
2021/12/22 13:12:45;;;;;;;11.12;6.22;;;;;;;;;;143729;566;46010;-63
2021/12/22 13:18:12;;;;;;;10.32;7.37;;;;;;;;;;143733;564;46010;-63
2021/12/22 13:20:41;;;;;;;10.57;6.72;;;;;;;;;;143726;573;47020;-63
2021/12/22 13:23:13;;;;;;;11.43;7.32;;;;;;;;;;143727;623;46020;-62
2021/12/22 13:25:46;;;;;;;12.98;6.10;;;;;;;;;;143731;657;45021;-61
2021/12/22 13:28:18;;;;;;;13.05;6.30;;;;;;;;;;143732;592;46010;-62
2021/12/22 13:30:54;;;;;;;9.65;6.57;;;;;;;;;;143728;623;47020;-63
2021/12/22 13:33:24;;;;;;;10.90;7.45;;;;;;;;;;143729;587;46010;-62
2021/12/22 13:35:59;;;;;;;10.80;6.53;;;;;;;;;;143731;582;45020;-63
2021/12/22 13:38:34;;;;;;;11.70;7.65;;;;;;;;;;143731;566;46020;-62
2021/12/22 13:41:04;;;;;;;10.07;6.30;;;;;;;;;;143727;683;47021;-63
2021/12/22 13:43:44;;;;;;;9.98;7.10;;;;;;;;;;143729;564;46010;-63
2021/12/22 13:46:34;;;;;;;9.50;6.25;;;;;;;;;;143731;587;45911;-62
2021/12/22 13:49:04;;;;;;;8.07;5.97;;;;;;;;;;143731;616;46010;-63
2021/12/22 13:51:40;;;;;;;13.90;7.22;;;;;;;;;;143726;659;47020;-62
2021/12/22 13:54:19;;;;;;;12.32;5.60;;;;;;;;;;143730;571;46013;-62
2021/12/22 13:56:49;;;;;;;11.32;6.90;;;;;;;;;;143731;585;45021;-63
2021/12/22 13:59:23;;;;;;;10.90;6.60;;;;;;;;;;143732;564;46020;-62
2021/12/22 14:01:52;;;;;;;9.70;6.30;;;;;;;;;;143729;579;47021;-63
2021/12/22 14:04:39;;;;;;;11.32;6.50;;;;;;;;;;143728;573;46919;-63
2021/12/22 14:07:15;;;;;;;9.63;6.72;;;;;;;;;;143729;572;45020;-63
2021/12/22 14:09:42;;;;;;;;;;;;;;;;;;143735;980;46020;-63
2021/12/22 14:12:12;;;;;;;11.30;6.50;;;;;;;;;;143731;595;47023;-62
2021/12/22 14:14:46;;;;;;;9.60;6.55;;;;;;;;;;143729;614;46012;-63
2021/12/22 14:17:20;;;;;;;9.45;7.18;;;;;;;;;;143731;567;45021;-63
2021/12/22 14:20:27;;;;;;;15.43;7.45;;;;;;;;;;143731;609;46020;-62
2021/12/22 14:23:02;;;;;;;12.82;7.05;;;;;;;;;;143728;592;47024;-63
2021/12/22 14:25:32;;;;;;;11.37;6.47;;;;;;;;;;143729;763;46012;-63
2021/12/22 14:28:22;;;;;;;11.93;6.47;;;;;;;;;;143728;646;45020;-63
2021/12/22 14:30:49;;;;;;;14.35;8.18;;;;;;;;;;143730;616;46020;-63
2021/12/22 14:33:19;;;;;;;14.77;7.65;;;;;;;;;;143724;593;47023;-63
2021/12/22 14:36:02;;;;;;;11.40;6.55;;;;;;;;;;143726;601;46012;-63
2021/12/22 14:38:33;;;;;;;9.27;6.72;;;;;;;;;;143728;630;45020;-63
2021/12/22 14:41:08;;;;;;;11.85;7.25;;;;;;;;;;143729;598;46013;-63
2021/12/22 14:43:46;;;;;;;12.27;6.70;;;;;;;;;;143727;588;47020;-63
2021/12/22 14:46:28;;;;;;;9.95;7.45;;;;;;;;;;143726;577;46012;-63
2021/12/22 14:49:04;;;;;;;9.98;6.82;;;;;;;;;;143729;591;45024;-63
2021/12/22 14:52:03;;;;;;;20.00;8.63;;;;;;;;;;143731;607;46012;-63
2021/12/22 14:54:33;;;;;;;15.10;8.75;;;;;;;;;;143724;571;47024;-63
2021/12/22 14:57:00;;;;;;;9.95;7.18;;;;;;;;;;143726;590;47033;-62
2021/12/22 14:59:34;;;;;;;9.43;6.95;;;;;;;;;;143728;589;45020;-63
2021/12/22 15:02:02;;;;;;;9.75;6.68;;;;;;;;;;143730;642;46013;-63
2021/12/22 15:04:29;;;;;;;11.00;6.50;;;;;;;;;;143725;640;47025;-63
2021/12/22 15:06:56;;;;;;;9.57;6.22;;;;;;;;;;143730;598;46012;-62
2021/12/22 15:09:23;;;;;;;10.23;7.30;;;;;;;;;;143729;628;45021;-63
2021/12/22 15:11:51;;;;;;;17.52;9.13;;;;;;;;;;143733;574;46020;-63
2021/12/22 15:14:18;;;;;;;12.98;7.90;;;;;;;;;;143724;578;47020;-62
2021/12/22 15:16:45;;;;;;;12.57;7.30;;;;;;;;;;143723;577;47013;-63
2021/12/22 15:19:12;;;;;;;13.55;7.78;;;;;;;;;;143729;655;45027;-62
2021/12/22 15:21:40;;;;;;;11.77;7.57;;;;;;;;;;143730;566;46020;-62